Terminal Aerodrome Forecast
Issued by NWS Bismarck, ND

Home | Current Version | Previous Version | Graphics & Text | Print | Product List | Glossary On
Versions: 1 2 3 4 5 6 7 8 9 10 11 12 13 14 15 16 17 18 19 20 21 22 23 24
000
FTUS43 KBIS 201100
TAFISN
TAF
KISN 201122Z 2012/2112 12005KT P6SM VCSH SCT002 BKN100
      TEMPO 2012/2015 2SM BR OVC002
     FM201500 20005KT P6SM VCSH SCT050 BKN080
     FM201800 23008KT P6SM VCSH SCT035 BKN050
     FM210000 25007KT P6SM SCT050 SCT080=

USA.gov is the U.S. government's official web portal to all federal, state and local government web resources and services.